createdAt,value
2023-03-11T00:00:53.717Z,12.15
2023-03-11T00:03:23.297Z,10.70
2023-03-11T00:05:51.087Z,9.13
2023-03-11T00:08:20.314Z,8.73
2023-03-11T00:10:48.904Z,9.80
2023-03-11T00:13:16.985Z,10.68
2023-03-11T00:15:47.028Z,10.00
2023-03-11T00:18:14.217Z,8.50
2023-03-11T00:20:43.746Z,9.13
2023-03-11T00:23:13.420Z,9.48
2023-03-11T00:25:40.802Z,9.18
2023-03-11T00:28:07.817Z,8.98
2023-03-11T00:30:34.757Z,9.40
2023-03-11T00:33:01.759Z,9.10
2023-03-11T00:35:32.979Z,8.48
2023-03-11T00:38:02.837Z,8.48
2023-03-11T00:40:32.821Z,8.93
2023-03-11T00:43:00.815Z,8.10
2023-03-11T00:45:31.712Z,9.10
2023-03-11T00:47:59.053Z,9.43
2023-03-11T00:50:30.102Z,9.50
2023-03-11T00:52:57.960Z,9.38
2023-03-11T01:00:45.463Z,12.40
2023-03-11T01:03:12.658Z,12.90
2023-03-11T01:05:39.710Z,10.50
2023-03-11T01:08:06.967Z,12.02
2023-03-11T01:10:34.905Z,11.10
2023-03-11T01:13:02.308Z,10.63
2023-03-11T01:18:23.332Z,11.77
2023-03-11T01:20:51.302Z,12.60
2023-03-11T01:23:19.635Z,9.60
2023-03-11T01:25:46.986Z,8.73
2023-03-11T01:28:13.974Z,8.38
2023-03-11T01:30:42.598Z,6.70
2023-03-11T01:33:14.664Z,6.00
2023-03-11T01:35:42.426Z,5.88
2023-03-11T01:38:09.963Z,6.55
2023-03-11T01:40:46.370Z,5.65
2023-03-11T01:43:51.530Z,5.53
2023-03-11T01:46:27.257Z,5.50
2023-03-11T01:48:56.520Z,5.35
2023-03-11T01:51:38.555Z,5.03
2023-03-11T01:54:13.451Z,5.82
2023-03-11T01:56:42.708Z,6.00
2023-03-11T01:59:11.949Z,6.30
2023-03-11T02:01:50.634Z,6.30
2023-03-11T02:04:17.951Z,7.13
2023-03-11T02:06:45.466Z,8.40
2023-03-11T02:09:12.441Z,9.20
2023-03-11T02:11:39.580Z,7.22
2023-03-11T02:14:08.848Z,7.07
2023-03-11T02:16:36.594Z,8.13
2023-03-11T02:19:19.564Z,5.97
2023-03-11T02:21:47.192Z,5.40
2023-03-11T02:24:53.484Z,4.15
2023-03-11T02:27:22.315Z,4.00
2023-03-11T02:29:51.639Z,4.13
2023-03-11T02:32:19.426Z,3.80
2023-03-11T02:34:46.357Z,4.25
2023-03-11T02:37:16.558Z,4.50
2023-03-11T02:39:51.735Z,4.30
2023-03-11T02:42:33.140Z,4.65
2023-03-11T02:45:09.170Z,4.20
2023-03-11T02:47:37.682Z,4.45
2023-03-11T02:50:06.215Z,3.65
2023-03-11T02:52:35.043Z,3.67
2023-03-11T02:55:02.240Z,3.78
2023-03-11T02:57:29.151Z,3.05
2023-03-11T02:59:56.586Z,3.40
2023-03-11T03:02:23.527Z,4.68
2023-03-11T03:04:50.395Z,4.85
2023-03-11T03:07:17.320Z,5.50
2023-03-11T03:09:44.345Z,5.57
2023-03-11T03:12:11.760Z,5.22
2023-03-11T03:14:38.843Z,5.45
2023-03-11T03:17:06.129Z,5.68
2023-03-11T03:19:33.530Z,4.75
2023-03-11T03:22:00.373Z,5.05
2023-03-11T03:24:27.320Z,5.72
2023-03-11T03:26:54.343Z,5.60
2023-03-11T03:29:21.337Z,7.43
2023-03-11T03:31:48.297Z,7.22
2023-03-11T03:34:15.737Z,7.18
2023-03-11T03:36:43.121Z,6.75
2023-03-11T03:39:09.966Z,6.53
2023-03-11T03:44:12.991Z,6.75
2023-03-11T03:46:39.811Z,6.00
2023-03-11T03:49:06.812Z,5.60
2023-03-11T03:54:09.113Z,6.78
2023-03-11T03:56:36.386Z,5.57
2023-03-11T03:59:03.694Z,7.50
2023-03-11T04:01:30.580Z,6.28
2023-03-11T04:03:57.538Z,6.65
2023-03-11T04:06:26.792Z,5.75
2023-03-11T04:08:54.572Z,5.38
2023-03-11T04:11:21.950Z,6.28
2023-03-11T04:13:49.192Z,5.95
2023-03-11T04:16:19.268Z,7.03
2023-03-11T04:18:46.787Z,6.03
2023-03-11T04:21:14.014Z,6.93
2023-03-11T04:23:41.296Z,5.93
2023-03-11T04:26:08.158Z,6.22
2023-03-11T04:28:34.972Z,7.78
2023-03-11T04:31:02.413Z,8.98
2023-03-11T04:33:29.314Z,8.68
2023-03-11T04:35:56.224Z,7.80
2023-03-11T04:38:23.175Z,7.60
2023-03-11T04:40:50.051Z,6.57
2023-03-11T04:43:17.284Z,6.65
2023-03-11T04:45:44.487Z,8.13
2023-03-11T04:48:11.515Z,6.53
2023-03-11T04:50:38.298Z,7.35
2023-03-11T04:53:05.108Z,6.20
2023-03-11T04:55:33.363Z,6.75
2023-03-11T04:58:00.574Z,6.80
2023-03-11T05:00:30.498Z,6.22
2023-03-11T05:02:57.824Z,5.97
2023-03-11T05:05:24.897Z,6.22
2023-03-11T05:07:51.724Z,4.85
2023-03-11T05:10:24.924Z,4.90
2023-03-11T05:12:52.353Z,5.00
2023-03-11T05:15:20.421Z,6.20
2023-03-11T05:17:47.624Z,6.18
2023-03-11T05:20:15.835Z,5.43
2023-03-11T05:22:43.099Z,6.18
2023-03-11T05:25:10.329Z,5.38
2023-03-11T05:27:37.186Z,4.55
2023-03-11T05:30:05.046Z,4.78
2023-03-11T05:32:32.009Z,7.97
2023-03-11T05:34:58.972Z,6.28
2023-03-11T05:37:26.330Z,5.60
2023-03-11T05:39:53.661Z,7.45
2023-03-11T05:42:21.574Z,12.27
2023-03-11T05:44:48.876Z,6.05
2023-03-11T05:47:17.467Z,4.18
2023-03-11T05:49:44.343Z,5.03
2023-03-11T05:52:11.157Z,5.28
2023-03-11T05:54:38.132Z,5.60
2023-03-11T05:57:04.991Z,6.20
2023-03-11T05:59:32.689Z,7.47
2023-03-11T06:01:59.603Z,8.10
2023-03-11T06:04:26.769Z,7.90
2023-03-11T06:06:54.093Z,9.20
2023-03-11T06:09:20.878Z,10.32
2023-03-11T06:11:48.119Z,9.80
2023-03-11T06:14:15.888Z,9.60
2023-03-11T06:16:43.372Z,11.18
2023-03-11T06:19:10.779Z,13.43
2023-03-11T06:21:37.776Z,15.30
2023-03-11T06:24:05.521Z,18.05
2023-03-11T06:26:32.413Z,14.50
2023-03-11T06:28:59.194Z,11.13
2023-03-11T06:31:28.136Z,10.25
2023-03-11T06:33:56.080Z,10.95
2023-03-11T06:36:23.433Z,11.52
2023-03-11T06:38:53.162Z,12.45
2023-03-11T06:41:20.397Z,9.88
2023-03-11T06:43:47.626Z,9.10
2023-03-11T06:46:20.059Z,10.00
2023-03-11T06:48:47.321Z,9.73
2023-03-11T06:51:14.326Z,8.02
2023-03-11T06:53:41.345Z,6.40
2023-03-11T06:56:12.101Z,7.15
2023-03-11T06:58:41.397Z,6.28
2023-03-11T07:01:12.604Z,5.90
2023-03-11T07:03:39.919Z,7.18
2023-03-11T07:06:10.725Z,7.05
2023-03-11T07:08:37.534Z,7.35
2023-03-11T07:11:07.276Z,8.98
2023-03-11T07:13:34.691Z,9.75
2023-03-11T07:16:05.519Z,9.82
2023-03-11T07:18:33.182Z,8.55
2023-03-11T07:21:02.497Z,8.07
2023-03-11T07:23:30.315Z,7.63
2023-03-11T07:25:57.169Z,8.85
2023-03-11T07:28:25.396Z,9.50
2023-03-11T07:30:53.277Z,9.20
2023-03-11T07:33:21.304Z,12.77
2023-03-11T07:35:49.473Z,13.48
2023-03-11T07:38:18.012Z,14.10
2023-03-11T07:40:45.319Z,11.77
2023-03-11T07:43:12.120Z,8.98
2023-03-11T07:45:39.423Z,9.18
2023-03-11T07:48:06.838Z,9.98
2023-03-11T07:50:34.035Z,11.23
2023-03-11T07:53:01.308Z,11.23
2023-03-11T07:55:28.284Z,9.07
2023-03-11T07:57:55.639Z,8.52
2023-03-11T08:00:22.844Z,10.65
2023-03-11T08:02:49.684Z,9.52
2023-03-11T08:05:21.031Z,8.77
2023-03-11T08:07:47.919Z,10.40
2023-03-11T08:10:14.844Z,10.55
2023-03-11T08:12:41.834Z,13.60
2023-03-11T08:15:09.532Z,11.45
2023-03-11T08:17:36.346Z,8.52
2023-03-11T08:20:04.964Z,8.35
2023-03-11T08:22:32.284Z,7.72
2023-03-11T08:24:59.111Z,9.18
2023-03-11T08:27:29.034Z,8.85
2023-03-11T08:29:55.958Z,10.45
2023-03-11T08:32:22.940Z,10.57
2023-03-11T08:34:49.828Z,8.73
2023-03-11T08:37:17.165Z,8.85
2023-03-11T08:39:43.919Z,9.18
2023-03-11T08:42:11.571Z,12.57
2023-03-11T08:44:38.994Z,9.32
2023-03-11T08:47:06.084Z,10.93
2023-03-11T08:49:32.971Z,9.98
2023-03-11T08:51:59.817Z,10.00
2023-03-11T08:54:26.756Z,8.57
2023-03-11T08:56:53.820Z,7.28
2023-03-11T08:59:21.130Z,6.55
2023-03-11T09:01:48.333Z,5.47
2023-03-11T09:04:16.456Z,5.20
2023-03-11T09:06:44.441Z,5.95
2023-03-11T09:09:16.816Z,4.78
2023-03-11T09:11:44.115Z,6.57
2023-03-11T09:14:10.934Z,4.30
2023-03-11T09:16:38.306Z,5.50
2023-03-11T09:19:07.486Z,5.18
2023-03-11T09:21:35.648Z,5.47
2023-03-11T09:24:04.303Z,5.72
2023-03-11T09:26:31.899Z,5.65
2023-03-11T09:28:59.225Z,6.90
2023-03-11T09:31:26.150Z,6.78
2023-03-11T09:33:53.187Z,1.27
2023-03-11T09:36:21.689Z,1.85
2023-03-11T09:38:49.096Z,1.67
2023-03-11T09:41:25.328Z,2.65
2023-03-11T09:44:12.736Z,2.15
2023-03-11T09:47:23.680Z,1.85
2023-03-11T09:49:59.560Z,1.40
2023-03-11T09:52:35.607Z,1.00
2023-03-11T09:55:05.376Z,2.80
2023-03-11T09:57:37.619Z,1.42
2023-03-11T10:00:06.495Z,1.00
2023-03-11T10:02:37.695Z,1.58
2023-03-11T10:05:23.189Z,1.92
2023-03-11T10:08:04.087Z,0.98
2023-03-11T10:10:39.137Z,0.90
2023-03-11T10:13:20.181Z,1.23
2023-03-11T10:16:04.004Z,1.95
2023-03-11T10:18:40.123Z,1.50
2023-03-11T10:21:14.416Z,1.92
2023-03-11T10:24:07.236Z,5.20
2023-03-11T10:26:43.546Z,4.60
2023-03-11T10:29:35.190Z,2.50
2023-03-11T10:32:17.408Z,1.25
2023-03-11T10:34:51.036Z,0.60
2023-03-11T10:37:42.578Z,0.77
2023-03-11T10:40:36.390Z,0.90
2023-03-11T10:43:32.982Z,0.85
2023-03-11T10:46:00.719Z,0.73
2023-03-11T10:48:27.668Z,0.90
2023-03-11T10:51:01.840Z,1.60
2023-03-11T10:53:29.568Z,0.40
2023-03-11T10:55:58.274Z,0.70
2023-03-11T10:58:28.821Z,0.68
2023-03-11T11:01:01.684Z,0.95
2023-03-11T11:03:29.519Z,0.35
2023-03-11T11:06:05.316Z,0.45
2023-03-11T11:08:33.696Z,1.08
2023-03-11T11:11:02.862Z,1.00
2023-03-11T11:13:34.831Z,0.55
2023-03-11T11:16:18.684Z,0.75
2023-03-11T11:18:49.455Z,1.20
2023-03-11T11:21:34.618Z,1.00
2023-03-11T11:24:10.244Z,1.33
2023-03-11T11:26:37.556Z,0.45
2023-03-11T11:29:10.234Z,0.80
2023-03-11T11:31:45.464Z,0.98
2023-03-11T11:34:31.713Z,1.10
2023-03-11T11:37:04.463Z,0.75
2023-03-11T11:39:40.023Z,1.25
2023-03-11T11:42:10.952Z,1.10
2023-03-11T11:44:37.757Z,1.10
2023-03-11T11:47:16.357Z,1.30
2023-03-11T11:49:54.337Z,1.00
2023-03-11T11:52:25.943Z,1.20
2023-03-11T11:55:18.752Z,1.00
2023-03-11T11:57:45.658Z,1.42
2023-03-11T12:00:24.262Z,1.33
2023-03-11T12:03:10.394Z,0.80
2023-03-11T12:05:50.706Z,1.13
2023-03-11T12:08:20.125Z,0.60
2023-03-11T12:11:00.302Z,0.68
2023-03-11T12:13:50.589Z,0.80
2023-03-11T12:16:36.232Z,0.60
2023-03-11T12:19:16.752Z,1.10
2023-03-11T12:22:22.012Z,0.70
2023-03-11T12:25:13.153Z,1.10
2023-03-11T12:27:51.810Z,0.60
2023-03-11T12:30:23.243Z,0.35
2023-03-11T12:32:57.612Z,0.40
2023-03-11T12:35:34.024Z,0.50
2023-03-11T12:38:13.345Z,0.63
2023-03-11T12:41:01.380Z,0.90
2023-03-11T12:43:33.480Z,1.30
2023-03-11T12:46:01.544Z,1.17
2023-03-11T12:48:49.776Z,0.70
2023-03-11T12:51:34.695Z,0.55
2023-03-11T12:54:27.566Z,1.05
2023-03-11T12:57:01.336Z,1.40
2023-03-11T12:59:40.327Z,1.13
2023-03-11T13:02:10.650Z,1.30
2023-03-11T13:04:37.431Z,1.20
2023-03-11T13:07:36.555Z,1.00
2023-03-11T13:10:18.468Z,1.33
2023-03-11T13:12:51.309Z,1.17
2023-03-11T13:15:18.463Z,1.08
2023-03-11T13:18:12.540Z,1.10
2023-03-11T13:20:39.346Z,1.55
2023-03-11T13:23:24.420Z,1.13
2023-03-11T13:25:54.369Z,1.23
2023-03-11T13:28:51.967Z,1.17
2023-03-11T13:31:40.526Z,5.82
2023-03-11T13:34:16.935Z,1.27
2023-03-11T13:37:13.297Z,1.00
2023-03-11T13:40:01.739Z,5.60
2023-03-11T13:42:37.553Z,5.68
2023-03-11T13:45:12.801Z,0.65
2023-03-11T13:47:45.845Z,1.00
2023-03-11T13:50:26.988Z,0.98
2023-03-11T13:52:56.055Z,1.00
2023-03-11T13:55:34.692Z,0.50
2023-03-11T13:58:13.697Z,0.80
2023-03-11T14:00:49.615Z,1.35
2023-03-11T14:03:22.094Z,0.95
2023-03-11T14:05:58.715Z,0.90
2023-03-11T14:08:30.086Z,0.65
2023-03-11T14:11:02.588Z,1.13
2023-03-11T14:13:31.533Z,0.80
2023-03-11T14:16:08.162Z,0.95
2023-03-11T14:18:49.500Z,1.00
2023-03-11T14:21:22.069Z,1.58
2023-03-11T14:23:52.126Z,1.58
2023-03-11T14:26:27.733Z,1.50
2023-03-11T14:29:10.747Z,1.20
2023-03-11T14:31:44.078Z,1.10
2023-03-11T14:34:10.952Z,1.35
2023-03-11T14:36:44.299Z,1.75
2023-03-11T14:39:33.199Z,1.20
2023-03-11T14:42:26.656Z,1.08
2023-03-11T14:45:07.814Z,1.00
2023-03-11T14:48:05.282Z,1.45
2023-03-11T14:50:38.089Z,1.20
2023-03-11T14:53:10.472Z,1.10
2023-03-11T14:55:53.146Z,1.60
2023-03-11T14:58:23.970Z,1.40
2023-03-11T15:01:00.261Z,1.67
2023-03-11T15:03:31.733Z,1.92
2023-03-11T15:06:00.840Z,1.40
2023-03-11T15:08:30.545Z,1.40
2023-03-11T15:11:12.469Z,1.25
2023-03-11T15:13:41.751Z,1.25
2023-03-11T15:16:35.492Z,1.40
2023-03-11T15:19:34.571Z,1.00
2023-03-11T15:22:26.362Z,1.00
2023-03-11T15:24:56.008Z,1.00
2023-03-11T15:27:32.646Z,1.00
2023-03-11T15:30:01.847Z,0.95
2023-03-11T15:32:34.453Z,1.50
2023-03-11T15:35:07.409Z,1.90
2023-03-11T15:37:35.016Z,1.30
2023-03-11T15:40:44.940Z,1.00
2023-03-11T15:43:15.096Z,1.48
2023-03-11T15:45:42.697Z,2.53
2023-03-11T15:48:11.283Z,1.45
2023-03-11T15:50:53.810Z,1.67
2023-03-11T15:53:22.490Z,1.98
2023-03-11T15:55:49.553Z,9.77
2023-03-11T15:58:18.590Z,2.75
2023-03-11T16:00:57.131Z,1.10
2023-03-11T16:03:24.563Z,1.42
2023-03-11T16:05:51.804Z,1.60
2023-03-11T16:08:18.849Z,1.40
2023-03-11T16:10:47.352Z,1.40
2023-03-11T16:13:15.159Z,3.20
2023-03-11T16:15:43.275Z,1.83
2023-03-11T16:18:10.901Z,2.00
2023-03-11T16:20:47.805Z,1.92
2023-03-11T16:23:26.181Z,1.75
2023-03-11T16:32:18.301Z,2.78
2023-03-11T16:40:49.884Z,1.58
2023-03-11T16:43:16.916Z,1.30
2023-03-11T16:45:44.194Z,1.00
2023-03-11T16:48:11.129Z,2.10
2023-03-11T16:50:38.106Z,1.48
2023-03-11T16:53:05.543Z,1.85
2023-03-11T16:55:33.124Z,2.17
2023-03-11T16:58:00.491Z,2.10
2023-03-11T17:00:39.870Z,2.47
2023-03-11T17:03:07.229Z,3.75
2023-03-11T17:05:34.579Z,3.90
2023-03-11T17:08:04.184Z,2.47
2023-03-11T17:10:38.134Z,2.90
2023-03-11T17:13:06.737Z,2.67
2023-03-11T17:15:35.303Z,2.65
2023-03-11T17:18:02.753Z,2.80
2023-03-11T17:20:29.695Z,4.55
2023-03-11T17:22:56.564Z,4.60
2023-03-11T17:25:23.546Z,8.07
2023-03-11T17:27:50.871Z,8.85
2023-03-11T17:30:35.679Z,5.50
2023-03-11T17:33:04.083Z,14.35
2023-03-11T17:35:31.062Z,17.02
2023-03-11T17:37:58.393Z,20.17
2023-03-11T17:40:27.029Z,22.77
2023-03-11T17:42:54.841Z,27.33
2023-03-11T17:45:22.134Z,24.60
2023-03-11T17:47:49.086Z,20.42
2023-03-11T17:50:16.023Z,33.95
2023-03-11T17:52:42.914Z,36.05
2023-03-11T17:55:10.467Z,34.10
2023-03-11T17:57:44.972Z,41.83
2023-03-11T18:00:14.889Z,37.72
2023-03-11T18:02:42.586Z,37.80
2023-03-11T18:05:09.859Z,42.10
2023-03-11T18:07:39.285Z,31.20
2023-03-11T18:10:07.892Z,33.63
2023-03-11T18:12:34.852Z,25.77
2023-03-11T18:15:06.117Z,25.08
2023-03-11T18:17:35.216Z,22.27
2023-03-11T18:20:02.359Z,23.00
2023-03-11T18:22:29.230Z,25.13
2023-03-11T18:24:56.162Z,25.30
2023-03-11T18:27:24.560Z,24.35
2023-03-11T18:29:52.276Z,20.98
2023-03-11T18:32:20.940Z,22.50
2023-03-11T18:34:51.448Z,21.75
2023-03-11T18:37:18.464Z,22.40
2023-03-11T18:39:45.335Z,23.23
2023-03-11T18:42:14.073Z,23.80
2023-03-11T18:44:41.938Z,23.48
2023-03-11T18:47:08.970Z,21.52
2023-03-11T18:49:38.837Z,19.52
2023-03-11T18:52:06.125Z,19.33
2023-03-11T18:54:33.409Z,20.15
2023-03-11T18:57:00.264Z,23.83
2023-03-11T18:59:27.842Z,25.85
2023-03-11T19:01:55.104Z,32.03
2023-03-11T19:04:22.119Z,37.90
2023-03-11T19:06:50.243Z,24.80
2023-03-11T19:09:20.656Z,21.88
2023-03-11T19:11:48.913Z,25.45
2023-03-11T19:14:19.585Z,19.95
2023-03-11T19:16:46.471Z,20.10
2023-03-11T19:19:13.553Z,18.83
2023-03-11T19:21:40.893Z,15.32
2023-03-11T19:24:08.181Z,13.38
2023-03-11T19:26:44.713Z,9.57
2023-03-11T19:29:14.066Z,6.72
2023-03-11T19:31:41.525Z,6.10
2023-03-11T19:34:08.368Z,6.45
2023-03-11T19:36:36.677Z,7.93
2023-03-11T19:39:04.068Z,10.85
2023-03-11T19:41:33.678Z,9.77
2023-03-11T19:44:00.972Z,10.13
2023-03-11T19:46:29.458Z,14.20
2023-03-11T19:48:56.841Z,8.68
2023-03-11T19:51:26.605Z,7.35
2023-03-11T19:53:55.632Z,7.78
2023-03-11T19:56:22.485Z,6.90
2023-03-11T19:58:49.282Z,6.22
2023-03-11T20:01:20.657Z,7.65
2023-03-11T20:03:47.985Z,7.80
2023-03-11T20:06:18.358Z,7.18
2023-03-11T20:08:45.439Z,6.53
2023-03-11T20:11:12.595Z,6.75
2023-03-11T20:13:42.651Z,7.35
2023-03-11T20:16:18.777Z,8.15
2023-03-11T20:18:50.183Z,10.27
2023-03-11T20:21:17.283Z,10.40
2023-03-11T20:23:44.109Z,7.35
2023-03-11T20:26:14.315Z,7.20
2023-03-11T20:29:02.660Z,7.63
2023-03-11T20:31:32.637Z,5.75
2023-03-11T20:34:00.002Z,5.60
2023-03-11T20:36:30.560Z,6.10
2023-03-11T20:38:57.989Z,6.43
2023-03-11T20:41:26.605Z,4.60
2023-03-11T20:43:57.320Z,5.10
2023-03-11T20:46:25.022Z,4.65
2023-03-11T20:48:51.997Z,3.78
2023-03-11T20:51:20.555Z,3.60
2023-03-11T20:53:49.029Z,5.35
2023-03-11T20:56:19.673Z,9.23
2023-03-11T20:58:49.012Z,6.32
2023-03-11T21:01:19.070Z,6.72
2023-03-11T21:03:46.587Z,8.52
2023-03-11T21:06:16.427Z,7.75
2023-03-11T21:08:43.584Z,10.30
2023-03-11T21:11:10.919Z,7.22
2023-03-11T21:13:37.873Z,7.45
2023-03-11T21:16:06.002Z,8.80
2023-03-11T21:18:33.202Z,9.57
2023-03-11T21:21:00.801Z,8.10
2023-03-11T21:23:27.701Z,7.15
2023-03-11T21:25:59.220Z,7.97
2023-03-11T21:28:26.808Z,10.18
2023-03-11T21:31:00.176Z,11.68
2023-03-11T21:33:27.513Z,10.15
2023-03-11T21:35:56.017Z,11.02
2023-03-11T21:38:27.817Z,13.60
2023-03-11T21:41:03.754Z,14.65
2023-03-11T21:43:30.706Z,12.25
2023-03-11T21:45:57.750Z,9.95
2023-03-11T21:48:24.879Z,9.15
2023-03-11T21:50:52.720Z,9.93
2023-03-11T21:53:20.118Z,11.77
2023-03-11T21:55:47.601Z,15.13
2023-03-11T21:58:15.423Z,12.93
2023-03-11T22:00:43.201Z,10.35
2023-03-11T22:03:10.623Z,11.00
2023-03-11T22:05:37.903Z,9.95
2023-03-11T22:08:05.833Z,12.00
2023-03-11T22:10:33.130Z,12.43
2023-03-11T22:13:00.446Z,8.45
2023-03-11T22:15:30.693Z,6.70
2023-03-11T22:17:57.580Z,6.38
2023-03-11T22:20:24.603Z,5.00
2023-03-11T22:22:51.757Z,6.25
2023-03-11T22:25:18.708Z,7.68
2023-03-11T22:27:45.884Z,9.55
2023-03-11T22:30:13.221Z,9.23
2023-03-11T22:32:40.156Z,8.93
2023-03-11T22:35:07.346Z,8.30
2023-03-11T22:40:12.863Z,8.52
2023-03-11T22:42:39.849Z,7.47
2023-03-11T22:45:09.815Z,8.88
2023-03-11T23:15:00.188Z,5.82
2023-03-11T23:17:27.215Z,5.20
2023-03-11T23:19:54.060Z,4.80
2023-03-11T23:22:21.148Z,5.18
2023-03-11T23:33:04.157Z,8.43
2023-03-11T23:35:32.255Z,7.43
2023-03-11T23:38:00.924Z,6.97
2023-03-11T23:46:55.296Z,4.82
2023-03-11T23:49:22.883Z,4.20
2023-03-11T23:55:02.478Z,4.30
2023-03-11T23:57:29.408Z,4.45
2023-03-11T23:59:58.928Z,5.03
